首页
METAR-TAF:

METAR-TAF

机场 :

德黑兰, 伊朗

梅赫拉巴德國際機場

纬度: 35-41N, 经度: 051-21E, 海拔: 1204米

当前天气观测

该预报发布于38分钟前的01:00 UTC
风速4节,风向北转东北
温度 5°C
湿度 45%
气压 1015 hPa
能见度10公里或以上
1500米以下无云,无积雨云

METAR: OIII 190100Z 03004KT CAVOK 05/M06 Q1014 A2996 NOSIG

时间: 05:08 (01:38 UTC)

预报

该预报发布于2小时和38分钟前的23:00 UTC
预报有效从19日的 00点(UTC)到 20日的 06点(UTC)
风速8节,风向西转西北
能見度: 7000
少量云层高于3500英尺
短暂存在
从 19日的 15点(UTC)到 19日的 21点(UTC)
风速16节,风向东转东南

TAF: OIII 182300Z 1900/2006 30004MPS 7000 FEW035 TEMPO 1915/1921 12008MPS

超过4000个机场的气象观测和天气预报(METAR&TAF报告)。

可查询的气象台以黄色和红色小点在地图上表示。

将鼠标移到小点上方,可查看气象台名称。

然后点击查看天气观测和预报。

如需切换地图:点击带黑十字的绿色按钮放大地图;点击带横线的绿色按钮缩小地图;或者点击绿色箭头查看邻近地区的地图。


METAR-TAF: